Time;durP1;ratioP1;P1;durP2;ratioP2;P2;SDS_P1;SDS_P2;PMS_P1;PMS_P2;Temp;Humidity;BMP_temperature;BMP_pressure;BME280_temperature;BME280_humidity;BME280_pressure;Samples;Min_cycle;Max_cycle;Signal;HPM_P1;HPM_P2
2023/10/09 00:01:52;;;;;;;11.48;6.32;;;14.00;99.90;;;;;;7365545;19;20015;-66
2023/10/09 00:04:20;;;;;;;13.43;6.25;;;14.00;99.90;;;;;;7371034;19;20026;-66
2023/10/09 00:06:46;;;;;;;10.55;6.53;;;14.00;99.90;;;;;;7364420;19;20118;-67
2023/10/09 00:09:46;;;;;;;10.07;6.00;;;14.00;99.90;;;;;;7370348;19;20022;-66
2023/10/09 00:12:10;;;;;;;12.88;6.78;;;14.00;99.90;;;;;;7367446;19;20025;-67
2023/10/09 00:14:38;;;;;;;13.73;7.60;;;14.00;99.90;;;;;;7367527;19;20039;-67
2023/10/09 00:17:17;;;;;;;13.35;8.30;;;14.00;99.90;;;;;;7366188;19;20014;-67
2023/10/09 00:19:51;;;;;;;13.25;8.38;;;13.90;99.90;;;;;;7367435;19;20034;-67
2023/10/09 00:25:10;;;;;;;15.10;8.80;;;14.00;99.90;;;;;;7365796;19;20010;-67
2023/10/09 00:27:45;;;;;;;18.15;9.38;;;13.90;99.90;;;;;;7370003;19;20019;-67
2023/10/09 00:30:17;;;;;;;15.65;9.10;;;13.90;99.90;;;;;;7366047;19;20557;-66
2023/10/09 00:33:06;;;;;;;17.33;9.57;;;13.90;99.90;;;;;;7366768;19;20047;-67
2023/10/09 00:40:57;;;;;;;18.95;9.73;;;13.90;99.90;;;;;;7369502;19;20469;-64
2023/10/09 00:43:28;;;;;;;15.18;10.10;;;13.90;99.90;;;;;;7367833;19;20020;-64
2023/10/09 00:45:54;;;;;;;17.25;11.30;;;13.90;99.90;;;;;;7369896;19;20089;-64
2023/10/09 00:48:31;;;;;;;19.85;10.98;;;13.90;99.90;;;;;;7371169;19;20470;-63
2023/10/09 00:51:00;;;;;;;17.58;11.43;;;13.90;99.90;;;;;;7369036;19;20111;-64
2023/10/09 00:53:33;;;;;;;19.52;12.02;;;13.90;99.90;;;;;;7370587;19;20022;-64
2023/10/09 00:56:28;;;;;;;17.30;11.13;;;13.90;99.90;;;;;;7365979;19;20018;-66
2023/10/09 01:01:35;;;;;;;19.40;13.82;;;13.90;99.90;;;;;;7368093;19;20035;-64
2023/10/09 01:04:14;;;;;;;24.67;13.73;;;13.90;99.90;;;;;;7367530;19;20014;-65
2023/10/09 01:07:04;;;;;;;28.13;16.80;;;13.90;99.90;;;;;;7366907;19;20030;-63
2023/10/09 01:09:37;;;;;;;27.17;15.63;;;13.90;99.90;;;;;;7366648;19;20024;-63
2023/10/09 01:12:03;;;;;;;25.33;15.13;;;13.90;99.90;;;;;;7369284;19;20026;-64
2023/10/09 01:14:35;;;;;;;21.98;14.68;;;13.80;99.90;;;;;;7353068;19;20025;-64
2023/10/09 01:17:10;;;;;;;20.90;14.65;;;13.90;99.90;;;;;;7369022;19;20021;-64
2023/10/09 01:19:36;;;;;;;30.48;17.38;;;13.80;99.90;;;;;;7365567;19;20026;-64
2023/10/09 01:22:16;;;;;;;26.23;16.65;;;13.80;99.90;;;;;;7366389;19;20488;-64
2023/10/09 01:24:43;;;;;;;24.80;16.05;;;13.80;99.90;;;;;;7368866;19;20014;-64
2023/10/09 01:27:14;;;;;;;27.52;16.48;;;13.80;99.90;;;;;;7364138;19;20049;-65
2023/10/09 01:29:42;;;;;;;24.00;16.80;;;13.80;99.90;;;;;;7375017;19;20063;-64
2023/10/09 01:32:16;;;;;;;28.80;17.35;;;13.80;99.90;;;;;;7371008;19;20786;-64
2023/10/09 01:34:49;;;;;;;28.40;17.83;;;13.80;99.90;;;;;;7371252;19;20681;-65
2023/10/09 01:37:30;;;;;;;26.65;17.25;;;13.80;99.90;;;;;;7371434;19;20701;-64
2023/10/09 01:39:59;;;;;;;25.80;16.90;;;13.80;99.90;;;;;;7372239;19;20014;-64
2023/10/09 01:42:45;;;;;;;27.27;16.63;;;13.80;99.90;;;;;;7371536;19;20086;-67
2023/10/09 01:45:41;;;;;;;30.42;16.67;;;13.70;99.90;;;;;;7371582;19;20468;-64
2023/10/09 01:48:04;;;;;;;25.20;17.08;;;13.70;99.90;;;;;;7368733;19;20029;-64
2023/10/09 01:50:35;;;;;;;28.85;17.40;;;13.70;99.90;;;;;;7373155;19;20033;-67
2023/10/09 01:53:02;;;;;;;27.57;17.93;;;13.70;99.90;;;;;;7373968;19;20015;-67
2023/10/09 01:55:39;;;;;;;30.45;17.52;;;13.60;99.90;;;;;;7373009;19;20018;-65
2023/10/09 01:58:27;;;;;;;30.42;18.65;;;13.60;99.90;;;;;;7370383;19;20863;-64
2023/10/09 02:00:56;;;;;;;32.60;18.33;;;13.70;99.90;;;;;;7370347;19;20018;-64
2023/10/09 02:03:23;;;;;;;32.17;18.55;;;13.60;99.90;;;;;;7377388;19;20021;-64
2023/10/09 02:05:53;;;;;;;26.88;18.63;;;13.60;99.90;;;;;;7372357;19;20023;-64
2023/10/09 02:08:26;;;;;;;30.55;19.92;;;13.60;99.90;;;;;;7374932;19;20033;-64
2023/10/09 02:10:56;;;;;;;28.30;18.90;;;13.60;99.90;;;;;;7373142;19;20026;-64
2023/10/09 02:13:34;;;;;;;33.90;20.70;;;13.60;99.90;;;;;;7375318;19;20044;-64
2023/10/09 02:18:39;;;;;;;33.08;20.98;;;13.60;99.90;;;;;;7367595;19;20023;-63
2023/10/09 02:23:50;;;;;;;30.40;21.23;;;13.60;99.90;;;;;;7374882;19;20117;-66
2023/10/09 02:26:39;;;;;;;36.38;23.08;;;13.60;99.90;;;;;;7368046;19;20625;-65
2023/10/09 02:31:46;;;;;;;45.25;27.20;;;13.60;99.90;;;;;;7369234;19;20506;-66
2023/10/09 02:34:15;;;;;;;42.95;26.80;;;13.60;99.90;;;;;;7369813;19;20021;-66
2023/10/09 02:36:42;;;;;;;43.08;27.73;;;13.70;99.90;;;;;;7367590;19;20105;-66
2023/10/09 02:39:22;;;;;;;46.03;26.25;;;13.70;99.90;;;;;;7370126;19;20373;-65
2023/10/09 02:41:55;;;;;;;47.30;28.95;;;13.70;99.90;;;;;;7368383;19;20022;-66
2023/10/09 02:44:25;;;;;;;41.10;26.55;;;13.70;99.90;;;;;;7372557;19;20046;-65
2023/10/09 02:46:57;;;;;;;41.00;25.80;;;13.70;99.90;;;;;;7371757;19;20022;-64
2023/10/09 02:49:24;;;;;;;49.22;29.40;;;13.80;99.90;;;;;;7372762;19;20722;-64
2023/10/09 02:51:53;;;;;;;48.42;28.60;;;13.80;99.90;;;;;;7372053;19;20589;-65
2023/10/09 02:57:06;;;;;;;50.47;30.13;;;13.80;99.90;;;;;;7372427;19;20014;-64
2023/10/09 02:59:33;;;;;;;46.38;28.73;;;13.80;99.90;;;;;;7371985;19;20364;-64
2023/10/09 03:02:02;;;;;;;46.90;29.90;;;13.80;99.90;;;;;;7369467;19;20027;-64
2023/10/09 03:04:31;;;;;;;50.10;29.67;;;13.80;99.90;;;;;;7372458;19;20144;-65
2023/10/09 03:06:58;;;;;;;51.22;32.45;;;13.80;99.90;;;;;;7373143;19;20021;-64
2023/10/09 03:09:27;;;;;;;54.85;31.30;;;13.80;99.90;;;;;;7375219;19;20033;-64
2023/10/09 03:12:03;;;;;;;54.58;31.92;;;13.80;99.90;;;;;;7369487;19;20097;-66
2023/10/09 03:14:32;;;;;;;51.22;30.42;;;13.80;99.90;;;;;;7368476;19;20107;-66
2023/10/09 03:16:59;;;;;;;54.13;31.80;;;13.80;99.90;;;;;;7367632;19;20382;-66
2023/10/09 03:19:29;;;;;;;55.53;32.20;;;13.90;99.90;;;;;;7370343;19;20023;-66
2023/10/09 03:21:59;;;;;;;48.35;31.65;;;13.90;99.90;;;;;;7371672;19;20042;-66
2023/10/09 03:24:27;;;;;;;52.67;34.25;;;13.90;99.90;;;;;;7374494;19;20023;-67
2023/10/09 03:26:55;;;;;;;54.42;34.03;;;13.90;99.90;;;;;;7369145;19;20070;-66
2023/10/09 03:29:24;;;;;;;58.85;34.83;;;13.90;99.90;;;;;;7373693;19;20093;-65
2023/10/09 03:31:51;;;;;;;56.20;34.70;;;14.00;99.90;;;;;;7372638;19;20111;-64
2023/10/09 03:34:18;;;;;;;61.40;36.83;;;14.00;99.90;;;;;;7373814;19;20112;-64
2023/10/09 03:36:48;;;;;;;62.83;38.42;;;14.00;99.90;;;;;;7372940;19;20022;-66
2023/10/09 03:39:33;;;;;;;58.00;36.35;;;14.00;99.90;;;;;;7370370;19;20018;-66
2023/10/09 03:42:00;;;;;;;66.30;37.78;;;14.00;99.90;;;;;;7370755;19;20034;-66
2023/10/09 03:44:29;;;;;;;66.45;39.25;;;14.10;99.90;;;;;;7370658;19;20019;-66
2023/10/09 03:46:56;;;;;;;69.68;40.10;;;14.10;99.90;;;;;;7370086;19;20645;-66
2023/10/09 03:49:26;;;;;;;72.47;40.50;;;14.10;99.90;;;;;;7370890;19;20026;-66
2023/10/09 03:51:52;;;;;;;66.03;39.30;;;14.20;99.90;;;;;;7368011;19;20018;-66
2023/10/09 03:54:23;;;;;;;70.68;41.13;;;14.20;99.90;;;;;;7369061;19;20026;-66
2023/10/09 03:56:50;;;;;;;65.85;41.33;;;14.30;99.90;;;;;;7367464;19;20647;-66
2023/10/09 03:59:21;;;;;;;69.78;42.78;;;14.30;99.90;;;;;;7369085;19;20038;-65
2023/10/09 04:01:53;;;;;;;71.45;41.72;;;14.40;99.90;;;;;;7368681;19;20043;-66
2023/10/09 04:04:23;;;;;;;63.45;40.75;;;14.40;99.90;;;;;;7368887;19;20025;-66
2023/10/09 04:06:52;;;;;;;72.55;43.22;;;14.50;99.90;;;;;;7371193;19;20023;-64
2023/10/09 04:14:47;;;;;;;68.35;42.38;;;14.60;99.90;;;;;;7369620;19;20056;-66
2023/10/09 04:17:34;;;;;;;59.00;39.85;;;14.60;99.90;;;;;;7368996;19;20025;-66
2023/10/09 04:22:59;;;;;;;60.58;40.47;;;14.70;99.90;;;;;;7366484;19;20014;-64
2023/10/09 04:25:27;;;;;;;63.90;40.33;;;14.70;99.90;;;;;;7369895;19;20019;-64
2023/10/09 04:30:53;;;;;;;64.05;42.13;;;14.80;99.90;;;;;;7371056;19;20919;-64
2023/10/09 04:33:35;;;;;;;67.47;40.92;;;14.80;99.90;;;;;;7369415;19;20019;-64
2023/10/09 04:36:22;;;;;;;64.82;41.00;;;14.90;99.90;;;;;;7368796;19;20093;-66
2023/10/09 04:38:59;;;;;;;65.50;39.70;;;14.90;99.90;;;;;;7369418;19;20126;-66
2023/10/09 04:41:28;;;;;;;61.92;39.03;;;14.90;99.90;;;;;;7367405;19;20019;-65
2023/10/09 04:44:16;;;;;;;66.50;40.17;;;14.90;99.90;;;;;;7366006;19;20374;-64
2023/10/09 04:46:45;;;;;;;64.05;40.63;;;14.90;99.90;;;;;;7373191;19;20014;-66
2023/10/09 04:52:17;;;;;;;60.20;39.35;;;14.90;99.90;;;;;;7364036;19;20452;-66
2023/10/09 04:57:29;;;;;;;66.13;40.65;;;14.90;99.90;;;;;;7368702;19;20022;-67
2023/10/09 04:59:58;;;;;;;66.50;41.50;;;14.90;99.90;;;;;;7381725;19;20023;-68
2023/10/09 05:02:25;;;;;;;68.88;39.88;;;14.90;99.90;;;;;;7384672;19;20018;-65
2023/10/09 05:05:15;;;;;;;68.47;40.90;;;15.00;99.90;;;;;;7382268;19;20023;-64
2023/10/09 05:07:55;;;;;;;68.18;39.75;;;14.90;99.90;;;;;;7378388;19;20018;-64
2023/10/09 05:10:25;;;;;;;70.15;41.20;;;15.00;99.90;;;;;;7377718;19;20010;-66
2023/10/09 05:12:57;;;;;;;66.22;41.63;;;15.00;99.90;;;;;;7377748;19;20011;-64
2023/10/09 05:15:29;;;;;;;64.32;40.05;;;15.00;99.90;;;;;;7374222;19;20035;-63
2023/10/09 05:17:56;;;;;;;72.55;41.13;;;15.00;99.90;;;;;;7378476;19;20030;-63
2023/10/09 05:22:59;;;;;;;65.38;39.25;;;15.00;99.90;;;;;;7378719;19;20108;-64
2023/10/09 05:28:48;;;;;;;65.03;38.42;;;15.00;99.90;;;;;;7372854;19;20019;-63
2023/10/09 05:31:07;;;;;;;59.40;37.72;;;15.00;99.90;;;;;;7377306;19;20031;-63
2023/10/09 05:33:37;;;;;;;55.00;34.97;;;15.10;99.90;;;;;;7375735;19;20019;-63
2023/10/09 05:38:58;;;;;;;53.83;34.92;;;15.20;99.90;;;;;;7375245;19;20062;-63
2023/10/09 05:41:45;;;;;;;54.30;35.22;;;15.20;99.90;;;;;;7378050;19;20021;-63
2023/10/09 05:50:33;;;;;;;43.88;29.52;;;15.30;99.90;;;;;;7377682;19;20093;-63
2023/10/09 06:06:18;;;;;;;37.40;21.83;;;15.70;99.90;;;;;;7377501;19;20014;-62
2023/10/09 06:16:41;;;;;;;29.88;18.73;;;15.70;99.90;;;;;;7371778;19;20014;-68
2023/10/09 06:24:23;;;;;;;23.50;16.48;;;15.70;99.90;;;;;;7374128;19;20073;-68
2023/10/09 06:29:52;;;;;;;30.85;17.15;;;15.80;99.90;;;;;;7374450;19;20043;-67
2023/10/09 06:35:21;;;;;;;25.48;15.68;;;15.90;99.90;;;;;;7376606;19;20093;-68
2023/10/09 06:45:54;;;;;;;20.10;14.63;;;16.10;99.90;;;;;;7373661;19;20025;-68
2023/10/09 06:51:07;;;;;;;20.83;13.65;;;16.10;99.90;;;;;;7372359;19;20026;-67
2023/10/09 06:59:23;;;;;;;23.63;13.07;;;16.10;99.90;;;;;;7372283;19;20616;-61
2023/10/09 07:07:07;;;;;;;74.45;65.00;;;16.20;99.90;;;;;;7373551;19;20838;-62
2023/10/09 07:09:43;;;;;;;21.10;12.52;;;16.20;99.90;;;;;;7377288;19;20014;-61
2023/10/09 07:12:14;;;;;;;19.83;11.30;;;16.20;99.90;;;;;;7382016;19;20380;-62
2023/10/09 07:20:13;;;;;;;20.63;13.05;;;16.30;99.90;;;;;;7370273;19;20059;-67
2023/10/09 07:22:52;;;;;;;20.38;12.40;;;16.30;99.90;;;;;;7370459;19;20026;-67
2023/10/09 07:28:18;;;;;;;21.90;11.40;;;16.30;99.90;;;;;;7374675;19;20014;-63
2023/10/09 07:30:47;;;;;;;21.00;11.93;;;16.30;99.90;;;;;;7377816;19;20014;-65
2023/10/09 07:38:19;;;;;;;26.90;13.00;;;16.40;99.90;;;;;;7375957;19;20029;-61
2023/10/09 07:43:39;;;;;;;18.83;11.82;;;16.40;99.90;;;;;;7375414;19;20035;-62
2023/10/09 07:48:54;;;;;;;20.10;13.30;;;16.40;99.90;;;;;;7373139;19;20023;-66
2023/10/09 07:51:23;;;;;;;19.17;12.07;;;16.40;99.90;;;;;;7371641;19;20041;-67
2023/10/09 07:54:31;;;;;;;21.08;12.05;;;16.40;99.90;;;;;;7380451;19;20033;-62
2023/10/09 07:56:45;;;;;;;21.50;13.15;;;16.40;99.90;;;;;;7380372;19;20021;-62
2023/10/09 07:59:13;;;;;;;21.23;13.65;;;16.40;99.90;;;;;;7374378;19;20018;-66
2023/10/09 08:02:02;;;;;;;23.50;12.48;;;16.40;99.90;;;;;;7381085;19;20022;-61
2023/10/09 08:04:47;;;;;;;20.15;12.45;;;16.40;99.90;;;;;;7381391;19;20026;-61
2023/10/09 08:07:34;;;;;;;23.55;12.75;;;16.50;99.90;;;;;;7383769;19;20025;-62
2023/10/09 08:18:03;;;;;;;23.38;12.40;;;16.60;99.90;;;;;;7369393;19;20501;-66
2023/10/09 08:20:51;;;;;;;18.08;11.27;;;16.70;99.90;;;;;;7371079;19;20014;-66
2023/10/09 08:23:33;;;;;;;23.63;11.40;;;16.70;99.90;;;;;;7371308;19;20023;-66
2023/10/09 08:26:12;;;;;;;22.55;12.15;;;16.70;99.90;;;;;;7367808;19;20110;-66
2023/10/09 08:28:39;;;;;;;20.08;10.52;;;16.70;99.90;;;;;;7370220;19;20043;-62
2023/10/09 08:31:34;;;;;;;21.05;11.05;;;16.70;99.90;;;;;;7370635;19;20018;-66
2023/10/09 08:34:01;;;;;;;23.13;11.70;;;16.70;99.90;;;;;;7368963;19;20018;-67
2023/10/09 08:36:29;;;;;;;24.50;12.35;;;16.70;99.90;;;;;;7371438;19;20026;-67
2023/10/09 08:39:01;;;;;;;21.02;12.18;;;16.70;99.90;;;;;;7372214;19;20762;-66
2023/10/09 08:41:30;;;;;;;22.95;11.80;;;16.70;99.90;;;;;;7378394;19;20470;-66
2023/10/09 08:43:57;;;;;;;20.88;13.27;;;16.70;99.90;;;;;;7380905;19;20026;-68
2023/10/09 08:46:29;;;;;;;22.27;12.30;;;16.70;99.90;;;;;;7380422;19;20022;-61
2023/10/09 08:48:56;;;;;;;20.70;12.23;;;16.70;99.90;;;;;;7387154;19;20014;-61
2023/10/09 08:51:25;;;;;;;28.60;13.18;;;16.70;99.90;;;;;;7382661;19;20026;-62
2023/10/09 08:53:52;;;;;;;20.83;11.88;;;16.70;99.90;;;;;;7385269;19;20077;-61
2023/10/09 08:56:23;;;;;;;26.25;13.60;;;16.70;99.90;;;;;;7381553;19;20488;-62
2023/10/09 08:58:57;;;;;;;27.27;18.23;;;16.70;99.90;;;;;;7378638;19;20035;-64
2023/10/09 09:01:24;;;;;;;25.95;14.20;;;16.70;99.90;;;;;;7379194;19;20022;-67
2023/10/09 09:03:55;;;;;;;17.00;12.30;;;16.70;99.90;;;;;;7375209;19;20019;-67
2023/10/09 09:06:23;;;;;;;23.87;12.83;;;16.70;99.90;;;;;;7377563;19;20015;-61
2023/10/09 09:08:59;;;;;;;26.98;13.02;;;16.80;99.90;;;;;;7382187;19;20284;-62
2023/10/09 09:11:30;;;;;;;21.98;12.00;;;16.70;99.90;;;;;;7376954;19;20014;-67
2023/10/09 09:14:05;;;;;;;28.33;13.17;;;16.80;99.90;;;;;;7376426;19;20035;-61
2023/10/09 09:16:37;;;;;;;23.42;15.40;;;16.80;99.90;;;;;;7389115;19;20026;-62
2023/10/09 09:21:42;;;;;;;31.35;13.93;;;16.80;99.90;;;;;;7389321;19;20805;-62
2023/10/09 09:24:30;;;;;;;27.58;13.85;;;16.80;99.90;;;;;;7385644;19;20598;-62
2023/10/09 09:27:21;;;;;;;22.95;13.40;;;16.70;99.90;;;;;;7385411;19;20014;-62
2023/10/09 09:29:54;;;;;;;28.13;13.93;;;16.70;99.90;;;;;;7385755;19;20502;-62
2023/10/09 09:32:38;;;;;;;26.20;13.88;;;16.70;99.90;;;;;;7386424;19;20030;-62
2023/10/09 09:35:17;;;;;;;26.27;14.05;;;16.70;99.90;;;;;;7386623;19;20022;-61
2023/10/09 09:37:52;;;;;;;26.95;13.88;;;16.60;99.90;;;;;;7382705;19;20014;-61
2023/10/09 09:40:33;;;;;;;26.38;13.75;;;16.70;99.90;;;;;;7380535;19;20052;-61
2023/10/09 09:43:05;;;;;;;26.90;13.30;;;16.70;99.90;;;;;;7383972;19;20023;-61
2023/10/09 09:45:36;;;;;;;23.50;12.88;;;16.70;99.90;;;;;;7383230;19;20031;-60
2023/10/09 09:48:06;;;;;;;24.42;12.98;;;16.70;99.90;;;;;;7381394;19;20768;-62
2023/10/09 09:50:43;;;;;;;23.38;13.30;;;16.80;99.90;;;;;;7384968;19;20019;-59
2023/10/09 09:53:16;;;;;;;23.50;12.63;;;16.90;99.90;;;;;;7381356;19;20038;-63
2023/10/09 09:55:57;;;;;;;21.67;13.00;;;16.90;99.90;;;;;;7374454;19;20014;-66
2023/10/09 09:58:42;;;;;;;28.17;12.20;;;16.90;99.90;;;;;;7378410;19;20031;-60
2023/10/09 10:01:16;;;;;;;26.98;13.32;;;17.00;99.90;;;;;;7377082;19;20402;-63
2023/10/09 10:03:50;;;;;;;26.27;12.88;;;16.90;99.90;;;;;;7373913;19;20486;-64
2023/10/09 10:06:19;;;;;;;26.05;12.52;;;17.00;99.90;;;;;;7376087;19;20018;-64
2023/10/09 10:08:50;;;;;;;23.88;13.02;;;17.00;99.90;;;;;;7375210;19;20026;-60
2023/10/09 10:11:44;;;;;;;25.45;12.98;;;17.00;99.90;;;;;;7384654;19;20769;-60
2023/10/09 10:14:12;;;;;;;20.40;12.63;;;17.20;99.90;;;;;;7382345;19;20327;-60
2023/10/09 10:17:00;;;;;;;26.63;12.65;;;17.30;99.90;;;;;;7384363;19;20017;-61
2023/10/09 10:20:25;;;;;;;24.35;11.93;;;17.50;99.90;;;;;;7380863;19;20078;-60
2023/10/09 10:23:19;;;;;;;25.73;12.57;;;17.60;99.90;;;;;;7379314;19;20018;-61
2023/10/09 10:25:59;;;;;;;21.67;11.23;;;17.70;99.90;;;;;;7373012;19;20037;-62
2023/10/09 10:28:42;;;;;;;20.98;11.45;;;17.70;99.90;;;;;;7380777;19;20021;-67
2023/10/09 10:31:09;;;;;;;20.35;10.85;;;17.80;99.90;;;;;;7381678;19;20025;-63
2023/10/09 10:33:54;;;;;;;21.92;12.00;;;17.80;99.90;;;;;;7382238;19;20490;-62
2023/10/09 10:36:28;;;;;;;21.52;11.77;;;17.80;99.90;;;;;;7379612;19;20025;-62
2023/10/09 10:39:10;;;;;;;19.33;10.73;;;17.70;99.90;;;;;;7372649;19;20014;-67
2023/10/09 10:41:50;;;;;;;25.37;12.10;;;17.70;99.90;;;;;;7375875;19;20022;-63
2023/10/09 10:44:33;;;;;;;24.27;10.83;;;17.70;99.90;;;;;;7385368;19;20366;-64
2023/10/09 10:47:00;;;;;;;21.98;10.65;;;17.70;99.90;;;;;;7386004;19;20629;-62
2023/10/09 10:49:36;;;;;;;20.02;10.25;;;17.70;99.90;;;;;;7376499;19;20025;-62
2023/10/09 10:52:17;;;;;;;26.33;10.88;;;17.70;99.90;;;;;;7374279;19;20018;-66
2023/10/09 10:57:30;;;;;;;23.88;11.30;;;17.70;99.90;;;;;;7379232;19;20018;-62
2023/10/09 11:00:12;;;;;;;17.27;10.23;;;17.70;99.90;;;;;;7374349;19;20933;-65
2023/10/09 11:02:47;;;;;;;23.77;11.05;;;17.80;99.90;;;;;;7380057;19;20078;-66
2023/10/09 11:05:14;;;;;;;19.38;10.00;;;17.80;99.90;;;;;;7380923;19;20022;-63
2023/10/09 11:07:41;;;;;;;22.75;11.18;;;17.80;99.90;;;;;;7378771;19;20019;-62
2023/10/09 11:10:09;;;;;;;18.48;10.88;;;17.80;99.90;;;;;;7376350;19;20024;-65
2023/10/09 11:12:39;;;;;;;17.52;10.15;;;17.90;99.90;;;;;;7379665;19;20393;-61
2023/10/09 11:18:08;;;;;;;20.83;10.40;;;17.90;99.90;;;;;;7377128;19;20103;-62
2023/10/09 11:20:38;;;;;;;22.40;10.80;;;17.80;99.90;;;;;;7375218;19;20026;-66
2023/10/09 11:25:52;;;;;;;18.17;9.82;;;17.80;99.90;;;;;;7375204;19;20389;-62
2023/10/09 11:31:12;;;;;;;17.13;9.05;;;17.80;99.90;;;;;;7375198;19;20068;-65
2023/10/09 11:33:45;;;;;;;20.23;9.13;;;17.90;99.90;;;;;;7377563;19;20018;-62
2023/10/09 11:36:11;;;;;;;17.30;8.90;;;18.00;99.90;;;;;;7375861;19;20043;-61
2023/10/09 11:38:39;;;;;;;17.83;9.90;;;18.10;99.90;;;;;;7375726;19;20093;-67
2023/10/09 11:41:35;;;;;;;14.02;8.45;;;18.20;99.90;;;;;;7373328;19;20438;-66
2023/10/09 11:44:04;;;;;;;21.50;12.57;;;18.20;99.90;;;;;;7371726;19;20587;-63
2023/10/09 11:46:37;;;;;;;18.45;8.60;;;18.30;99.90;;;;;;7378421;19;20530;-65
2023/10/09 11:52:09;;;;;;;14.82;8.57;;;18.50;99.90;;;;;;7376758;19;20037;-62
2023/10/09 11:54:31;;;;;;;22.77;9.10;;;18.70;99.90;;;;;;7375125;19;20023;-61
2023/10/09 11:57:00;;;;;;;70.80;63.25;;;18.60;99.90;;;;;;7365761;19;20372;-65
2023/10/09 11:59:41;;;;;;;18.20;7.70;;;18.50;99.90;;;;;;7369358;19;20737;-61
2023/10/09 12:02:12;;;;;;;15.30;7.47;;;18.50;99.90;;;;;;7367697;19;20029;-62
2023/10/09 12:04:42;;;;;;;13.48;7.20;;;18.40;99.90;;;;;;7372127;19;20619;-60
2023/10/09 12:07:10;;;;;;;18.05;7.13;;;18.30;99.90;;;;;;7370932;19;20414;-69
2023/10/09 12:09:39;;;;;;;15.27;7.15;;;18.30;99.90;;;;;;7369026;19;20029;-70
2023/10/09 12:12:08;;;;;;;17.85;7.00;;;18.30;99.90;;;;;;7370467;19;20015;-62
2023/10/09 12:14:37;;;;;;;15.00;6.60;;;18.20;99.90;;;;;;7370185;19;20042;-62
2023/10/09 12:17:08;;;;;;;11.65;5.95;;;18.20;99.90;;;;;;7365940;19;20023;-69
2023/10/09 12:19:35;;;;;;;14.25;6.60;;;18.10;99.90;;;;;;7370046;19;20086;-60
2023/10/09 12:22:03;;;;;;;11.65;6.13;;;18.10;99.90;;;;;;7370251;19;20023;-61
2023/10/09 12:24:31;;;;;;;10.93;5.47;;;18.10;99.90;;;;;;7371479;19;20555;-62
2023/10/09 12:26:57;;;;;;;13.27;6.07;;;18.10;99.90;;;;;;7373646;19;20109;-68
2023/10/09 12:29:24;;;;;;;14.98;7.05;;;18.20;99.90;;;;;;7372839;19;20025;-70
2023/10/09 12:31:58;;;;;;;14.02;5.75;;;18.30;99.90;;;;;;7368340;19;20379;-69
2023/10/09 12:34:33;;;;;;;13.18;5.95;;;18.40;99.90;;;;;;7367533;19;20018;-70
2023/10/09 12:37:01;;;;;;;12.90;5.75;;;18.70;99.90;;;;;;7367053;19;20015;-62
2023/10/09 12:39:33;;;;;;;11.52;5.38;;;19.40;99.90;;;;;;7365535;19;20021;-70
2023/10/09 12:42:06;;;;;;;16.85;6.07;;;20.30;99.90;;;;;;7368862;19;20022;-63
2023/10/09 12:44:38;;;;;;;8.55;4.65;;;21.40;99.90;;;;;;7367614;19;20743;-63
2023/10/09 12:47:06;;;;;;;12.35;5.50;;;22.10;99.90;;;;;;7371571;19;20018;-62
2023/10/09 12:49:33;;;;;;;9.82;5.40;;;22.70;99.90;;;;;;7368877;19;20378;-62
2023/10/09 12:51:59;;;;;;;10.88;4.22;;;22.40;99.90;;;;;;7370212;19;20018;-72
2023/10/09 12:54:30;;;;;;;12.45;4.65;;;22.20;99.90;;;;;;7368360;19;20023;-66
2023/10/09 12:56:59;;;;;;;11.00;4.35;;;21.50;99.90;;;;;;7371045;19;20018;-70
2023/10/09 12:59:25;;;;;;;12.38;4.57;;;21.20;99.90;;;;;;7368188;19;20023;-70
2023/10/09 13:05:25;;;;;;;8.52;3.75;;;20.30;99.90;;;;;;7368515;19;20027;-69
2023/10/09 13:07:53;;;;;;;10.55;4.63;;;20.20;99.90;;;;;;7368668;19;20637;-70
2023/10/09 13:10:20;;;;;;;11.13;4.45;;;19.90;99.90;;;;;;7366767;19;20082;-69
2023/10/09 13:12:54;;;;;;;13.48;4.80;;;19.80;99.90;;;;;;7370281;19;20026;-67
2023/10/09 13:15:21;;;;;;;10.98;4.53;;;19.80;99.90;;;;;;7370625;19;20022;-70
2023/10/09 13:17:47;;;;;;;11.45;4.20;;;19.70;99.90;;;;;;7372249;19;20026;-69
2023/10/09 13:20:14;;;;;;;10.27;4.35;;;19.60;99.90;;;;;;7363600;19;20018;-62
2023/10/09 13:22:46;;;;;;;11.15;4.72;;;19.60;99.90;;;;;;7372504;19;20023;-62
2023/10/09 13:25:25;;;;;;;13.75;4.72;;;19.40;99.90;;;;;;7370953;19;20018;-61
2023/10/09 13:27:51;;;;;;;10.57;4.65;;;19.30;99.90;;;;;;7378125;19;20025;-62
2023/10/09 13:30:24;;;;;;;9.95;4.43;;;19.20;99.90;;;;;;7375847;19;20026;-67
2023/10/09 13:32:51;;;;;;;10.82;3.88;;;19.10;99.90;;;;;;7378756;19;20481;-68
2023/10/09 13:35:18;;;;;;;12.60;4.47;;;19.10;99.90;;;;;;7378402;19;20018;-61
2023/10/09 13:37:53;;;;;;;11.50;4.40;;;19.10;99.90;;;;;;7381495;19;20022;-61
2023/10/09 13:40:28;;;;;;;10.48;3.97;;;19.10;99.90;;;;;;7376329;19;20048;-62
2023/10/09 13:42:58;;;;;;;8.95;3.80;;;19.10;99.90;;;;;;7380055;19;20493;-61
2023/10/09 13:45:28;;;;;;;10.65;3.42;;;19.10;99.90;;;;;;7380345;19;20022;-67
2023/10/09 13:47:56;;;;;;;9.52;3.80;;;19.20;99.90;;;;;;7378471;19;20562;-68
2023/10/09 13:50:31;;;;;;;10.82;4.25;;;19.10;99.90;;;;;;7379562;19;20086;-68
2023/10/09 13:52:58;;;;;;;9.95;3.88;;;19.10;99.90;;;;;;7374445;19;20683;-69
2023/10/09 13:55:31;;;;;;;12.27;4.22;;;19.00;99.90;;;;;;7379072;19;20029;-62
2023/10/09 13:57:58;;;;;;;11.10;4.00;;;19.20;99.90;;;;;;7376519;19;20018;-69
2023/10/09 14:00:34;;;;;;;7.75;3.55;;;19.30;99.90;;;;;;7374353;19;20892;-69
2023/10/09 14:03:13;;;;;;;9.55;3.90;;;19.40;99.90;;;;;;7379464;19;20487;-68
2023/10/09 14:05:54;;;;;;;10.45;4.40;;;19.30;99.90;;;;;;7371735;19;20029;-69
2023/10/09 14:08:26;;;;;;;10.65;3.95;;;19.20;99.90;;;;;;7377772;19;20527;-70
2023/10/09 14:10:52;;;;;;;8.27;3.92;;;19.10;99.90;;;;;;7375468;19;21059;-61
2023/10/09 14:13:25;;;;;;;9.35;3.78;;;19.00;99.90;;;;;;7375964;19;20522;-62
2023/10/09 14:15:54;;;;;;;8.95;3.58;;;18.80;99.90;;;;;;7371936;19;20038;-62
2023/10/09 14:18:21;;;;;;;10.10;3.72;;;18.70;99.90;;;;;;7377091;19;20019;-62
2023/10/09 14:20:49;;;;;;;15.68;4.20;;;18.70;99.90;;;;;;7373821;19;20023;-62
2023/10/09 14:23:20;;;;;;;9.93;4.43;;;18.60;99.90;;;;;;7378076;19;20015;-62
2023/10/09 14:25:49;;;;;;;10.25;3.85;;;18.60;99.90;;;;;;7376960;19;20035;-61
2023/10/09 14:28:19;;;;;;;14.82;4.57;;;18.50;99.90;;;;;;7374741;19;20024;-61
2023/10/09 14:30:50;;;;;;;9.13;3.78;;;18.60;99.90;;;;;;7376838;19;20486;-61
2023/10/09 14:33:22;;;;;;;12.70;3.92;;;18.50;99.90;;;;;;7377346;19;20020;-70
2023/10/09 14:35:55;;;;;;;9.70;3.15;;;18.50;99.90;;;;;;7375709;19;20029;-61
2023/10/09 14:38:27;;;;;;;8.27;3.67;;;18.60;99.90;;;;;;7377107;19;20022;-70
2023/10/09 14:40:59;;;;;;;10.63;3.70;;;18.50;99.90;;;;;;7374391;19;20042;-62
2023/10/09 14:43:33;;;;;;;10.07;4.00;;;18.50;99.90;;;;;;7376453;19;20514;-62
2023/10/09 14:45:59;;;;;;;9.50;3.67;;;18.50;99.90;;;;;;7378526;19;20038;-62
2023/10/09 14:48:28;;;;;;;8.55;3.17;;;18.40;99.90;;;;;;7371979;19;20018;-70
2023/10/09 14:51:00;;;;;;;12.77;3.45;;;18.30;99.90;;;;;;7375845;19;20022;-62
2023/10/09 14:53:31;;;;;;;9.45;3.85;;;18.30;99.90;;;;;;7374112;19;20094;-62
2023/10/09 14:55:59;;;;;;;7.85;3.08;;;18.30;99.90;;;;;;7373371;19;20041;-62
2023/10/09 14:58:25;;;;;;;9.07;3.42;;;18.40;99.90;;;;;;7370820;19;20025;-71
2023/10/09 15:00:52;;;;;;;8.10;3.40;;;18.30;99.90;;;;;;7372890;19;20022;-67
2023/10/09 15:03:19;;;;;;;9.48;3.30;;;18.30;99.90;;;;;;7373432;19;20688;-70
2023/10/09 15:05:46;;;;;;;11.43;5.72;;;18.30;99.90;;;;;;7376147;19;20015;-63
2023/10/09 15:08:13;;;;;;;7.85;3.08;;;18.20;99.90;;;;;;7373566;19;20054;-62
2023/10/09 15:10:56;;;;;;;7.75;3.38;;;18.20;99.90;;;;;;7369271;19;20386;-62
2023/10/09 15:13:27;;;;;;;7.80;2.97;;;18.10;99.90;;;;;;7372310;19;20015;-61
2023/10/09 15:15:55;;;;;;;9.13;3.80;;;18.10;99.90;;;;;;7372606;19;20022;-63
2023/10/09 15:18:22;;;;;;;8.32;3.55;;;18.00;99.90;;;;;;7375178;19;20023;-62
2023/10/09 15:20:51;;;;;;;10.18;3.25;;;17.90;99.90;;;;;;7371061;19;20022;-69
2023/10/09 15:23:20;;;;;;;13.55;4.40;;;17.90;99.90;;;;;;7376792;19;20773;-70
2023/10/09 15:25:49;;;;;;;13.23;4.82;;;17.80;99.90;;;;;;7377124;19;20018;-62
2023/10/09 15:28:22;;;;;;;9.82;3.35;;;17.80;99.90;;;;;;7374032;19;20025;-62
2023/10/09 15:30:49;;;;;;;13.30;4.07;;;17.80;99.90;;;;;;7373409;19;20010;-70
2023/10/09 15:33:19;;;;;;;10.07;3.58;;;17.80;99.90;;;;;;7371231;19;20022;-70